createdAt,value
2022-12-17T00:01:35.633Z,-1.72
2022-12-17T00:04:25.679Z,-1.74
2022-12-17T00:07:15.167Z,-1.72
2022-12-17T00:10:04.719Z,-1.70
2022-12-17T00:12:54.113Z,-1.70
2022-12-17T00:15:45.458Z,-1.69
2022-12-17T00:18:35.569Z,-1.64
2022-12-17T00:21:26.095Z,-1.70
2022-12-17T00:24:15.859Z,-1.72
2022-12-17T00:27:05.303Z,-1.67
2022-12-17T00:29:55.105Z,-1.73
2022-12-17T00:32:47.106Z,-1.69
2022-12-17T00:35:36.828Z,-1.78
2022-12-17T00:38:26.796Z,-1.81
2022-12-17T00:41:16.440Z,-1.81
2022-12-17T00:44:06.136Z,-1.81
2022-12-17T00:46:57.519Z,-1.80
2022-12-17T00:49:47.959Z,-1.79
2022-12-17T00:52:37.620Z,-1.79
2022-12-17T00:55:27.612Z,-1.78
2022-12-17T00:58:17.642Z,-1.77
2022-12-17T01:01:07.656Z,-1.80
2022-12-17T01:03:57.490Z,-1.80
2022-12-17T01:06:48.124Z,-1.81
2022-12-17T01:09:38.140Z,-1.81
2022-12-17T01:12:29.723Z,-1.81
2022-12-17T01:15:19.320Z,-1.80
2022-12-17T01:18:09.408Z,-1.76
2022-12-17T01:20:59.793Z,-1.77
2022-12-17T01:23:49.582Z,-1.77
2022-12-17T01:26:39.557Z,-1.76
2022-12-17T01:29:28.844Z,-1.76
2022-12-17T01:32:18.368Z,-1.76
2022-12-17T01:35:10.050Z,-1.76
2022-12-17T01:38:00.244Z,-1.77
2022-12-17T01:40:49.967Z,-1.75
2022-12-17T01:43:53.731Z,-1.76
2022-12-17T01:46:46.064Z,-1.79
2022-12-17T01:49:38.309Z,-1.81
2022-12-17T01:52:30.374Z,-1.83
2022-12-17T01:55:22.250Z,-1.86
2022-12-17T01:58:11.854Z,-1.89
2022-12-17T02:01:01.957Z,-1.94
2022-12-17T02:03:51.897Z,-1.97
2022-12-17T02:06:47.109Z,-2.01
2022-12-17T02:09:45.597Z,-2.02
2022-12-17T02:12:44.045Z,-2.05
2022-12-17T02:15:39.338Z,-2.07
2022-12-17T02:18:32.008Z,-2.08
2022-12-17T02:21:23.015Z,-2.08
2022-12-17T02:24:41.710Z,-2.07
2022-12-17T02:27:32.685Z,-2.08
2022-12-17T02:30:25.168Z,-2.07
2022-12-17T02:33:15.792Z,-2.06
2022-12-17T02:36:15.269Z,-2.05
2022-12-17T02:38:51.739Z,-2.05
2022-12-17T02:41:47.815Z,-2.04
2022-12-17T02:44:41.453Z,-2.02
2022-12-17T02:47:32.790Z,-2.02
2022-12-17T02:50:22.927Z,-2.02
2022-12-17T02:53:13.109Z,-2.04
2022-12-17T02:56:04.855Z,-2.01
2022-12-17T02:58:56.937Z,-1.99
2022-12-17T03:01:46.973Z,-1.97
2022-12-17T03:04:37.050Z,-1.98
2022-12-17T03:07:28.257Z,-1.99
2022-12-17T03:10:18.014Z,-1.99
2022-12-17T03:13:08.031Z,-2.00
2022-12-17T03:15:57.601Z,-2.01
2022-12-17T03:18:47.446Z,-2.01
2022-12-17T03:21:37.223Z,-2.04
2022-12-17T03:24:26.964Z,-2.06
2022-12-17T03:27:16.748Z,-2.07
2022-12-17T03:30:06.447Z,-2.11
2022-12-17T03:32:56.477Z,-2.14
2022-12-17T03:35:46.453Z,-2.15
2022-12-17T03:38:36.305Z,-2.16
2022-12-17T03:41:26.002Z,-2.15
2022-12-17T03:44:15.850Z,-2.16
2022-12-17T03:47:05.673Z,-2.15
2022-12-17T03:49:55.340Z,-2.15
2022-12-17T03:52:44.839Z,-2.12
2022-12-17T03:55:34.560Z,-2.12
2022-12-17T03:58:24.452Z,-2.11
2022-12-17T04:01:14.698Z,-2.09
2022-12-17T04:04:04.574Z,-2.09
2022-12-17T04:06:54.342Z,-2.09
2022-12-17T04:09:44.205Z,-2.08
2022-12-17T04:12:33.662Z,-2.07
2022-12-17T04:15:24.293Z,-2.05
2022-12-17T04:18:14.192Z,-2.05
2022-12-17T04:21:04.217Z,-2.06
2022-12-17T04:23:54.307Z,-2.08
2022-12-17T04:26:44.088Z,-2.10
2022-12-17T04:29:33.894Z,-2.11
2022-12-17T04:32:23.387Z,-2.10
2022-12-17T04:35:13.115Z,-2.10
2022-12-17T04:38:02.970Z,-2.08
2022-12-17T04:40:52.760Z,-2.07
2022-12-17T04:43:42.268Z,-2.05
2022-12-17T04:46:32.284Z,-2.05
2022-12-17T04:49:22.118Z,-2.07
2022-12-17T04:52:11.717Z,-2.05
2022-12-17T04:55:01.757Z,-2.06
2022-12-17T04:57:51.967Z,-2.07
2022-12-17T05:00:41.899Z,-2.05
2022-12-17T05:03:34.350Z,-2.08
2022-12-17T05:06:25.003Z,-2.09
2022-12-17T05:09:15.259Z,-2.08
2022-12-17T05:12:07.032Z,-2.08
2022-12-17T05:14:56.984Z,-2.05
2022-12-17T05:17:46.664Z,-2.02
2022-12-17T05:20:36.603Z,-2.02
2022-12-17T05:23:27.286Z,-2.01
2022-12-17T05:26:25.200Z,-1.99
2022-12-17T05:29:16.269Z,-1.99
2022-12-17T05:32:07.910Z,-1.98
2022-12-17T05:34:58.756Z,-1.96
2022-12-17T05:37:50.434Z,-1.96
2022-12-17T05:40:27.065Z,-1.91
2022-12-17T05:43:18.526Z,-1.93
2022-12-17T05:46:08.396Z,-1.93
2022-12-17T05:48:58.058Z,-1.93
2022-12-17T05:51:47.939Z,-1.92
2022-12-17T05:54:38.431Z,-1.90
2022-12-17T05:57:28.328Z,-1.89
2022-12-17T06:00:18.323Z,-1.87
2022-12-17T06:03:09.994Z,-1.86
2022-12-17T06:05:52.777Z,-1.87
2022-12-17T06:08:42.501Z,-1.87
2022-12-17T06:11:32.423Z,-1.86
2022-12-17T06:14:22.674Z,-1.84
2022-12-17T06:17:12.818Z,-1.82
2022-12-17T06:20:02.758Z,-1.80
2022-12-17T06:22:52.934Z,-1.79
2022-12-17T06:25:42.801Z,-1.78
2022-12-17T06:28:32.138Z,-1.75
2022-12-17T06:31:22.434Z,-1.76
2022-12-17T06:34:12.024Z,-1.77
2022-12-17T06:37:01.566Z,-1.80
2022-12-17T06:39:35.759Z,-1.82
2022-12-17T06:42:26.033Z,-1.84
2022-12-17T06:45:15.959Z,-1.84
2022-12-17T06:48:06.269Z,-1.84
2022-12-17T06:50:58.470Z,-1.84
2022-12-17T06:53:48.725Z,-1.82
2022-12-17T06:56:39.825Z,-1.80
2022-12-17T06:59:30.241Z,-1.81
2022-12-17T07:02:20.993Z,-1.80
2022-12-17T07:05:11.334Z,-1.79
2022-12-17T07:08:01.841Z,-1.76
2022-12-17T07:10:51.848Z,-1.80
2022-12-17T07:13:42.122Z,-1.81
2022-12-17T07:16:45.072Z,-1.75
2022-12-17T07:19:34.995Z,-1.69
2022-12-17T07:22:24.789Z,-1.60
2022-12-17T07:25:14.435Z,-1.52
2022-12-17T07:28:12.415Z,-1.52
2022-12-17T07:31:01.947Z,-1.49
2022-12-17T07:33:51.756Z,-1.49
2022-12-17T07:36:41.920Z,-1.50
2022-12-17T07:39:32.379Z,-1.53
2022-12-17T07:42:23.133Z,-1.52
2022-12-17T07:45:14.173Z,-1.52
2022-12-17T07:48:13.935Z,-1.46
2022-12-17T07:51:08.983Z,-1.40
2022-12-17T07:53:59.364Z,-1.39
2022-12-17T07:56:50.086Z,-1.38
2022-12-17T07:59:39.927Z,-1.36
2022-12-17T08:02:30.575Z,-1.35
2022-12-17T08:05:20.787Z,-1.32
2022-12-17T08:08:10.957Z,-1.19
2022-12-17T08:11:01.800Z,-1.18
2022-12-17T08:13:52.549Z,-1.09
2022-12-17T08:16:42.920Z,-1.11
2022-12-17T08:19:33.365Z,-1.08
2022-12-17T08:22:23.968Z,-1.07
2022-12-17T08:25:14.116Z,-1.06
2022-12-17T08:28:11.087Z,-1.03
2022-12-17T08:30:56.612Z,-1.01
2022-12-17T08:33:46.706Z,-1.04
2022-12-17T08:36:36.992Z,-1.06
2022-12-17T08:39:26.884Z,-1.08
2022-12-17T08:42:17.033Z,-1.08
2022-12-17T08:45:06.924Z,-1.09
2022-12-17T08:48:00.569Z,-1.09
2022-12-17T08:50:48.975Z,-1.07
2022-12-17T08:53:39.665Z,-1.03
2022-12-17T08:56:29.997Z,-1.01
2022-12-17T08:59:21.091Z,-0.97
2022-12-17T09:02:11.024Z,-0.94
2022-12-17T09:05:01.083Z,-0.91
2022-12-17T09:07:50.894Z,-0.90
2022-12-17T09:10:27.925Z,-0.89
2022-12-17T09:13:22.116Z,-0.85
2022-12-17T09:16:13.952Z,-0.90
2022-12-17T09:19:03.668Z,-0.87
2022-12-17T09:21:53.700Z,-0.85
2022-12-17T09:24:43.943Z,-0.80
2022-12-17T09:27:33.596Z,-0.78
2022-12-17T09:30:24.237Z,-0.77
2022-12-17T09:33:13.939Z,-0.76
2022-12-17T09:36:03.899Z,-0.76
2022-12-17T09:38:54.645Z,-0.76
2022-12-17T09:41:56.235Z,-0.74
2022-12-17T09:45:04.990Z,-0.76
2022-12-17T09:48:32.640Z,-0.75
2022-12-17T09:51:21.785Z,-0.77
2022-12-17T09:54:12.536Z,-0.75
2022-12-17T09:57:03.388Z,-0.77
2022-12-17T09:59:54.356Z,-0.76
2022-12-17T10:02:46.707Z,-0.74
2022-12-17T10:05:41.869Z,-0.73
2022-12-17T10:08:34.722Z,-0.76
2022-12-17T10:11:42.552Z,-0.75
2022-12-17T10:14:37.964Z,-0.73
2022-12-17T10:17:34.299Z,-0.70
2022-12-17T10:20:26.942Z,-0.67
2022-12-17T10:23:17.230Z,-0.67
2022-12-17T10:26:12.814Z,-0.67
2022-12-17T10:29:03.448Z,-0.70
2022-12-17T10:31:53.468Z,-0.70
2022-12-17T10:34:44.132Z,-0.71
2022-12-17T10:37:39.675Z,-0.74
2022-12-17T10:40:44.722Z,-0.76
2022-12-17T10:43:44.506Z,-0.77
2022-12-17T10:46:48.212Z,-0.61
2022-12-17T10:49:43.658Z,-0.73
2022-12-17T10:52:50.734Z,-0.72
2022-12-17T10:55:45.606Z,-0.70
2022-12-17T10:58:41.387Z,-0.69
2022-12-17T11:01:33.895Z,-0.69
2022-12-17T11:04:31.156Z,-0.68
2022-12-17T11:07:06.215Z,-0.67
2022-12-17T11:10:10.105Z,-0.66
2022-12-17T11:13:09.368Z,-0.66
2022-12-17T11:16:07.866Z,-0.66
2022-12-17T11:19:17.131Z,-0.67
2022-12-17T11:22:19.403Z,-0.70
2022-12-17T11:25:16.259Z,-0.71
2022-12-17T11:28:11.618Z,-0.70
2022-12-17T11:31:05.545Z,-0.74
2022-12-17T11:34:11.105Z,-0.74
2022-12-17T11:37:01.898Z,-0.76
2022-12-17T11:39:54.481Z,-0.60
2022-12-17T11:42:50.564Z,-0.75
2022-12-17T11:45:46.913Z,-0.71
2022-12-17T11:48:45.755Z,-0.71
2022-12-17T11:51:38.525Z,-0.71
2022-12-17T11:54:37.488Z,-0.72
2022-12-17T11:57:45.320Z,-0.75
2022-12-17T12:00:41.311Z,-0.75
2022-12-17T12:03:59.658Z,-0.75
2022-12-17T12:07:11.746Z,-0.74
2022-12-17T12:10:07.440Z,-0.77
2022-12-17T12:13:12.164Z,-0.78
2022-12-17T12:16:15.128Z,-0.82
2022-12-17T12:19:34.735Z,-0.66
2022-12-17T12:22:42.905Z,-0.80
2022-12-17T12:25:41.589Z,-0.83
2022-12-17T12:28:49.236Z,-0.84
2022-12-17T12:32:12.279Z,-0.88
2022-12-17T12:35:04.137Z,-0.92
2022-12-17T12:37:54.839Z,-0.93
2022-12-17T12:40:46.996Z,-0.95
2022-12-17T12:43:48.693Z,-0.97
2022-12-17T12:46:59.273Z,-0.99
2022-12-17T12:49:58.099Z,-1.03
2022-12-17T12:52:50.140Z,-1.03
2022-12-17T12:55:40.566Z,-1.05
2022-12-17T12:58:51.714Z,-1.07
2022-12-17T13:01:44.572Z,-1.07
2022-12-17T13:04:52.903Z,-1.08
2022-12-17T13:07:30.485Z,-1.10
2022-12-17T13:10:03.698Z,-1.09
2022-12-17T13:12:38.860Z,-1.12
2022-12-17T13:15:30.150Z,-1.11
2022-12-17T13:18:05.722Z,-1.11
2022-12-17T13:20:38.171Z,-1.11
2022-12-17T13:23:16.557Z,-1.11
2022-12-17T13:25:48.612Z,-1.13
2022-12-17T13:28:31.162Z,-1.10
2022-12-17T13:31:06.529Z,-1.10
2022-12-17T13:33:44.276Z,-1.11
2022-12-17T13:36:37.330Z,-1.11
2022-12-17T13:39:43.822Z,-1.10
2022-12-17T13:42:30.562Z,-1.09
2022-12-17T13:45:04.357Z,-1.08
2022-12-17T13:47:38.459Z,-1.05
2022-12-17T13:50:33.839Z,-0.90
2022-12-17T13:52:56.691Z,-1.03
2022-12-17T13:55:31.731Z,-1.07
2022-12-17T13:58:04.589Z,-1.07
2022-12-17T14:00:37.091Z,-1.08
2022-12-17T14:03:14.269Z,-1.06
2022-12-17T14:05:46.950Z,-1.08
2022-12-17T14:08:21.573Z,-1.10
2022-12-17T14:11:05.180Z,-1.10
2022-12-17T14:13:35.402Z,-1.12
2022-12-17T14:16:07.854Z,-1.13
2022-12-17T14:18:43.211Z,-1.14
2022-12-17T14:21:15.902Z,-1.15
2022-12-17T14:23:50.908Z,-1.16
2022-12-17T14:26:23.442Z,-1.15
2022-12-17T14:28:57.057Z,-1.15
2022-12-17T14:31:29.774Z,-1.16
2022-12-17T14:34:06.347Z,-0.99
2022-12-17T14:36:41.738Z,-1.13
2022-12-17T14:39:31.841Z,-1.17
2022-12-17T14:42:32.654Z,-1.18
2022-12-17T14:45:08.660Z,-1.18
2022-12-17T14:47:41.797Z,-1.17
2022-12-17T14:50:22.946Z,-1.17
2022-12-17T14:52:57.520Z,-1.14
2022-12-17T14:55:42.022Z,-1.15
2022-12-17T14:58:17.802Z,-1.15
2022-12-17T15:01:11.727Z,-1.14
2022-12-17T15:03:49.564Z,-1.11
2022-12-17T15:06:21.971Z,-1.11
2022-12-17T15:08:55.458Z,-1.10
2022-12-17T15:11:27.358Z,-1.12
2022-12-17T15:13:59.416Z,-0.96
2022-12-17T15:16:32.350Z,-1.11
2022-12-17T15:19:04.707Z,-1.13
2022-12-17T15:21:37.247Z,-1.16
2022-12-17T15:24:14.983Z,-1.18
2022-12-17T15:26:48.070Z,-1.18
2022-12-17T15:29:20.403Z,-1.18
2022-12-17T15:31:52.720Z,-1.17
2022-12-17T15:34:25.481Z,-1.16
2022-12-17T15:36:59.594Z,-1.15
2022-12-17T15:39:33.727Z,-1.18
2022-12-17T15:42:23.823Z,-1.18
2022-12-17T15:44:56.193Z,-1.17
2022-12-17T15:47:29.204Z,-1.18
2022-12-17T15:50:01.248Z,-1.21
2022-12-17T15:52:33.546Z,-1.23
2022-12-17T15:55:06.573Z,-1.21
2022-12-17T15:57:38.842Z,-1.21
2022-12-17T16:00:12.137Z,-1.24
2022-12-17T16:02:44.651Z,-1.24
2022-12-17T16:05:17.606Z,-1.21
2022-12-17T16:07:50.467Z,-1.22
2022-12-17T16:10:23.653Z,-1.22
2022-12-17T16:12:55.850Z,-1.20
2022-12-17T16:15:28.289Z,-1.17
2022-12-17T16:18:00.404Z,-1.19
2022-12-17T16:20:32.690Z,-1.20
2022-12-17T16:23:04.945Z,-1.19
2022-12-17T16:25:36.911Z,-1.17
2022-12-17T16:28:09.132Z,-1.19
2022-12-17T16:30:42.083Z,-1.18
2022-12-17T16:33:15.229Z,-1.16
2022-12-17T16:35:52.251Z,-1.15
2022-12-17T16:38:24.587Z,-1.12
2022-12-17T16:41:02.369Z,-1.13
2022-12-17T16:43:35.760Z,-1.09
2022-12-17T16:46:12.341Z,-1.11
2022-12-17T16:48:43.779Z,-1.15
2022-12-17T16:51:28.204Z,-1.16
2022-12-17T16:53:54.542Z,-1.16
2022-12-17T16:56:32.813Z,-1.16
2022-12-17T16:59:05.551Z,-1.17
2022-12-17T17:01:39.349Z,-1.20
2022-12-17T17:04:11.786Z,-1.17
2022-12-17T17:06:47.006Z,-1.20
2022-12-17T17:09:20.195Z,-1.22
2022-12-17T17:11:52.832Z,-1.22
2022-12-17T17:14:24.985Z,-1.21
2022-12-17T17:16:57.387Z,-1.21
2022-12-17T17:19:29.602Z,-1.18
2022-12-17T17:22:01.940Z,-1.19
2022-12-17T17:24:34.098Z,-1.19
2022-12-17T17:27:06.030Z,-1.18
2022-12-17T17:29:38.035Z,-1.17
2022-12-17T17:32:11.774Z,-1.14
2022-12-17T17:34:44.356Z,-1.19
2022-12-17T17:37:16.840Z,-1.22
2022-12-17T17:39:49.034Z,-1.23
2022-12-17T17:42:21.356Z,-1.22
2022-12-17T17:44:53.553Z,-1.25
2022-12-17T17:47:25.485Z,-1.27
2022-12-17T17:49:57.922Z,-1.26
2022-12-17T17:52:29.916Z,-1.28
2022-12-17T17:55:02.837Z,-1.28
2022-12-17T17:57:35.085Z,-1.29
2022-12-17T18:00:07.792Z,-1.29
2022-12-17T18:02:41.403Z,-1.32
2022-12-17T18:05:13.618Z,-1.30
2022-12-17T18:07:45.712Z,-1.31
2022-12-17T18:10:17.804Z,-1.33
2022-12-17T18:13:08.727Z,-1.34
2022-12-17T18:15:40.960Z,-1.30
2022-12-17T18:18:14.764Z,-1.33
2022-12-17T18:20:49.805Z,-1.32
2022-12-17T18:23:21.852Z,-1.34
2022-12-17T18:25:53.970Z,-1.34
2022-12-17T18:28:26.263Z,-1.31
2022-12-17T18:30:58.459Z,-1.34
2022-12-17T18:33:30.987Z,-1.35
2022-12-17T18:36:03.054Z,-1.35
2022-12-17T18:38:35.375Z,-1.35
2022-12-17T18:41:30.690Z,-1.35
2022-12-17T18:44:05.608Z,-1.35
2022-12-17T18:46:38.299Z,-1.33
2022-12-17T18:49:13.704Z,-1.30
2022-12-17T18:51:47.859Z,-1.31
2022-12-17T18:54:22.564Z,-1.30
2022-12-17T18:57:01.556Z,-1.29
2022-12-17T18:59:32.386Z,-1.28
2022-12-17T19:02:04.733Z,-1.25
2022-12-17T19:04:36.831Z,-1.24
2022-12-17T19:07:09.715Z,-1.24
2022-12-17T19:09:42.573Z,-1.26
2022-12-17T19:12:14.724Z,-1.10
2022-12-17T19:14:47.185Z,-1.24
2022-12-17T19:17:19.210Z,-1.26
2022-12-17T19:19:51.280Z,-1.25
2022-12-17T19:22:23.411Z,-1.27
2022-12-17T19:24:55.657Z,-1.27
2022-12-17T19:27:28.938Z,-1.28
2022-12-17T19:30:01.158Z,-1.28
2022-12-17T19:32:34.448Z,-1.31
2022-12-17T19:35:06.748Z,-1.30
2022-12-17T19:37:38.748Z,-1.30
2022-12-17T19:40:11.407Z,-1.34
2022-12-17T19:42:43.464Z,-1.36
2022-12-17T19:45:15.828Z,-1.39
2022-12-17T19:47:47.846Z,-1.39
2022-12-17T19:50:19.769Z,-1.38
2022-12-17T19:52:51.795Z,-1.37
2022-12-17T19:55:23.651Z,-1.39
2022-12-17T19:57:56.471Z,-1.42
2022-12-17T20:00:28.577Z,-1.43
2022-12-17T20:03:01.816Z,-1.41
2022-12-17T20:05:34.183Z,-1.40
2022-12-17T20:08:06.554Z,-1.42
2022-12-17T20:10:38.668Z,-1.38
2022-12-17T20:13:10.743Z,-1.39
2022-12-17T20:15:43.102Z,-1.41
2022-12-17T20:18:15.225Z,-1.41
2022-12-17T20:20:47.173Z,-1.44
2022-12-17T20:23:22.688Z,-1.44
2022-12-17T20:26:03.027Z,-1.43
2022-12-17T20:28:35.658Z,-1.45
2022-12-17T20:31:09.083Z,-1.48
2022-12-17T20:33:42.108Z,-1.48
2022-12-17T20:36:16.728Z,-1.48
2022-12-17T20:38:49.220Z,-1.47
2022-12-17T20:41:23.656Z,-1.52
2022-12-17T20:43:55.883Z,-1.56
2022-12-17T20:46:28.029Z,-1.56
2022-12-17T20:49:04.195Z,-1.57
2022-12-17T20:51:36.601Z,-1.57
2022-12-17T20:54:08.732Z,-1.57
2022-12-17T20:56:41.549Z,-1.58
2022-12-17T20:59:16.561Z,-1.60
2022-12-17T21:01:55.534Z,-1.55
2022-12-17T21:04:24.425Z,-1.55
2022-12-17T21:06:56.513Z,-1.56
2022-12-17T21:09:28.737Z,-1.58
2022-12-17T21:12:00.860Z,-1.59
2022-12-17T21:14:35.774Z,-1.58
2022-12-17T21:17:07.119Z,-1.61
2022-12-17T21:19:39.696Z,-1.62
2022-12-17T21:22:14.857Z,-1.63
2022-12-17T21:24:47.060Z,-1.64
2022-12-17T21:27:19.188Z,-1.63
2022-12-17T21:29:51.391Z,-1.63
2022-12-17T21:32:25.588Z,-1.59
2022-12-17T21:34:57.658Z,-1.55
2022-12-17T21:37:29.863Z,-1.57
2022-12-17T21:40:02.483Z,-1.60
2022-12-17T21:42:52.056Z,-1.62
2022-12-17T21:45:24.094Z,-1.61
2022-12-17T21:47:56.345Z,-1.63
2022-12-17T21:50:28.648Z,-1.60
2022-12-17T21:53:00.939Z,-1.60
2022-12-17T21:55:32.864Z,-1.67
2022-12-17T21:58:05.270Z,-1.70
2022-12-17T22:00:37.419Z,-1.70
2022-12-17T22:03:10.206Z,-1.70
2022-12-17T22:05:42.229Z,-1.63
2022-12-17T22:08:14.394Z,-1.69
2022-12-17T22:10:49.277Z,-1.70
2022-12-17T22:13:38.506Z,-1.70
2022-12-17T22:16:11.181Z,-1.65
2022-12-17T22:18:43.363Z,-1.72
2022-12-17T22:21:15.351Z,-1.74
2022-12-17T22:23:49.096Z,-1.71
2022-12-17T22:26:22.203Z,-1.73
2022-12-17T22:28:54.505Z,-1.67
2022-12-17T22:31:44.761Z,-1.72
2022-12-17T22:34:57.170Z,-1.73
2022-12-17T22:38:53.429Z,-1.70
2022-12-17T22:44:28.653Z,-1.64
2022-12-17T22:44:36.368Z,-1.67
2022-12-17T22:44:54.530Z,-1.58
2022-12-17T22:47:24.149Z,-1.66
2022-12-17T22:49:56.286Z,-1.72
2022-12-17T22:52:29.254Z,-1.69
2022-12-17T22:55:01.704Z,-1.71
2022-12-17T22:57:36.110Z,-1.75
2022-12-17T23:00:10.630Z,-1.74
2022-12-17T23:02:42.756Z,-1.78
2022-12-17T23:05:15.044Z,-1.71
2022-12-17T23:07:47.467Z,-1.79
2022-12-17T23:10:20.422Z,-1.83
2022-12-17T23:12:56.428Z,-1.78
2022-12-17T23:15:37.033Z,-1.80
2022-12-17T23:18:09.628Z,-1.78
2022-12-17T23:20:42.635Z,-1.84
2022-12-17T23:23:14.837Z,-1.75
2022-12-17T23:25:47.049Z,-1.77
2022-12-17T23:28:19.090Z,-1.83
2022-12-17T23:30:51.728Z,-1.78
2022-12-17T23:33:23.871Z,-1.77
2022-12-17T23:36:04.508Z,-1.78
2022-12-17T23:38:37.374Z,-1.74
2022-12-17T23:41:18.615Z,-1.83
2022-12-17T23:43:51.312Z,-1.79
2022-12-17T23:46:25.243Z,-1.85
2022-12-17T23:48:57.532Z,-1.88
2022-12-17T23:51:29.798Z,-1.77
2022-12-17T23:54:01.822Z,-1.80
2022-12-17T23:56:33.926Z,-1.82
2022-12-17T23:59:24.062Z,-1.83
